createdAt,value
2023-01-19T00:02:50.964Z,99269.11
2023-01-19T00:05:04.211Z,99268.90
2023-01-19T00:07:16.844Z,99271.52
2023-01-19T00:09:33.591Z,99271.64
2023-01-19T00:11:45.551Z,99278.20
2023-01-19T00:13:58.074Z,99276.23
2023-01-19T00:16:10.108Z,99274.75
2023-01-19T00:18:22.042Z,99278.48
2023-01-19T00:20:35.648Z,99281.03
2023-01-19T00:22:51.024Z,99285.04
2023-01-19T00:25:03.758Z,99288.91
2023-01-19T00:27:15.804Z,99289.91
2023-01-19T00:29:31.001Z,99292.89
2023-01-19T00:31:43.472Z,99294.21
2023-01-19T00:33:55.756Z,99296.97
2023-01-19T00:36:08.447Z,99299.10
2023-01-19T00:38:20.132Z,99302.58
2023-01-19T00:40:32.333Z,99305.48
2023-01-19T00:42:44.763Z,99309.36
2023-01-19T00:44:57.401Z,99309.73
2023-01-19T00:47:09.954Z,99314.27
2023-01-19T00:49:21.946Z,99316.52
2023-01-19T00:51:33.741Z,99317.91
2023-01-19T00:53:45.324Z,99322.11
2023-01-19T00:55:57.213Z,99323.64
2023-01-19T00:58:08.923Z,99319.52
2023-01-19T01:00:22.249Z,99317.69
2023-01-19T01:02:34.398Z,99320.16
2023-01-19T01:04:46.430Z,99322.98
2023-01-19T01:06:58.419Z,99327.89
2023-01-19T01:09:13.161Z,99332.10
2023-01-19T01:11:25.375Z,99328.84
2023-01-19T01:13:37.064Z,99336.71
2023-01-19T01:15:51.311Z,99341.65
2023-01-19T01:18:03.104Z,99348.99
2023-01-19T01:20:18.022Z,99356.56
2023-01-19T01:22:29.853Z,99359.95
2023-01-19T01:24:41.440Z,99362.88
2023-01-19T01:26:53.132Z,99364.89
2023-01-19T01:29:06.657Z,99363.45
2023-01-19T01:31:18.870Z,99366.89
2023-01-19T01:33:39.996Z,99373.84
2023-01-19T01:35:54.011Z,99375.02
2023-01-19T01:38:06.004Z,99384.38
2023-01-19T01:40:19.327Z,99383.63
2023-01-19T01:42:32.458Z,99383.56
2023-01-19T01:44:52.078Z,99380.05
2023-01-19T01:47:04.938Z,99375.97
2023-01-19T01:49:17.956Z,99375.35
2023-01-19T01:51:39.168Z,99369.79
2023-01-19T01:54:01.403Z,99367.80
2023-01-19T01:56:17.823Z,99363.35
2023-01-19T01:58:31.866Z,99366.66
2023-01-19T02:01:03.062Z,99373.38
2023-01-19T02:03:15.944Z,99379.28
2023-01-19T02:05:33.733Z,99379.65
2023-01-19T02:08:26.386Z,99390.55
2023-01-19T02:10:58.862Z,99397.04
2023-01-19T02:13:23.261Z,99399.37
2023-01-19T02:15:35.339Z,99397.73
2023-01-19T02:17:48.150Z,99405.69
2023-01-19T02:20:00.048Z,99411.33
2023-01-19T02:22:24.840Z,99409.92
2023-01-19T02:24:37.968Z,99413.68
2023-01-19T02:26:51.001Z,99416.73
2023-01-19T02:29:07.591Z,99416.61
2023-01-19T02:31:19.988Z,99418.34
2023-01-19T02:33:32.187Z,99418.43
2023-01-19T02:35:46.026Z,99416.02
2023-01-19T02:37:58.856Z,99413.58
2023-01-19T02:40:14.102Z,99406.70
2023-01-19T02:42:31.122Z,99408.04
2023-01-19T02:44:47.428Z,99404.57
2023-01-19T02:46:59.618Z,99406.48
2023-01-19T02:49:11.829Z,99408.34
2023-01-19T02:51:24.939Z,99409.48
2023-01-19T02:54:04.995Z,99413.17
2023-01-19T02:56:36.340Z,99416.90
2023-01-19T02:59:01.543Z,99418.29
2023-01-19T03:01:26.857Z,99409.83
2023-01-19T03:04:00.040Z,99413.09
2023-01-19T03:06:28.119Z,99416.91
2023-01-19T03:09:15.746Z,99414.96
2023-01-19T03:11:35.301Z,99417.42
2023-01-19T03:14:00.979Z,99414.01
2023-01-19T03:16:22.833Z,99416.98
2023-01-19T03:18:37.310Z,99421.50
2023-01-19T03:20:53.545Z,99417.85
2023-01-19T03:23:08.879Z,99415.66
2023-01-19T03:25:23.247Z,99416.62
2023-01-19T03:27:41.014Z,99416.33
2023-01-19T03:30:19.882Z,99419.29
2023-01-19T03:32:37.427Z,99427.17
2023-01-19T03:34:51.664Z,99427.27
2023-01-19T03:37:05.491Z,99430.39
2023-01-19T03:39:23.224Z,99431.39
2023-01-19T03:41:38.461Z,99428.80
2023-01-19T03:43:52.638Z,99430.94
2023-01-19T03:46:06.115Z,99433.14
2023-01-19T03:48:18.264Z,99433.68
2023-01-19T03:50:31.082Z,99437.59
2023-01-19T03:52:43.073Z,99437.91
2023-01-19T03:54:54.968Z,99435.33
2023-01-19T03:57:07.372Z,99436.95
2023-01-19T03:59:20.187Z,99439.01
2023-01-19T04:01:33.210Z,99438.35
2023-01-19T04:03:47.456Z,99439.88
2023-01-19T04:05:59.546Z,99439.25
2023-01-19T04:08:12.159Z,99438.88
2023-01-19T04:10:24.463Z,99440.34
2023-01-19T04:12:36.455Z,99442.40
2023-01-19T04:14:48.038Z,99447.20
2023-01-19T04:17:00.343Z,99442.48
2023-01-19T04:19:12.540Z,99444.66
2023-01-19T04:21:24.638Z,99442.59
2023-01-19T04:23:37.041Z,99442.53
2023-01-19T04:25:49.342Z,99447.85
2023-01-19T04:28:01.341Z,99448.96
2023-01-19T04:30:13.561Z,99451.27
2023-01-19T04:32:25.227Z,99455.06
2023-01-19T04:34:36.767Z,99456.36
2023-01-19T04:36:51.277Z,99456.70
2023-01-19T04:39:03.057Z,99460.61
2023-01-19T04:41:15.043Z,99460.70
2023-01-19T04:43:26.838Z,99467.98
2023-01-19T04:45:38.729Z,99472.20
2023-01-19T04:47:50.825Z,99472.13
2023-01-19T04:50:02.520Z,99473.01
2023-01-19T04:52:14.406Z,99473.27
2023-01-19T04:54:27.230Z,99478.14
2023-01-19T04:56:40.954Z,99479.27
2023-01-19T04:58:52.848Z,99477.86
2023-01-19T05:01:09.245Z,99475.95
2023-01-19T05:03:20.980Z,99474.48
2023-01-19T05:05:33.461Z,99474.86
2023-01-19T05:07:45.540Z,99470.55
2023-01-19T05:09:57.338Z,99476.05
2023-01-19T05:12:09.833Z,99478.56
2023-01-19T05:14:21.827Z,99482.94
2023-01-19T05:16:34.854Z,99485.17
2023-01-19T05:18:47.153Z,99484.61
2023-01-19T05:20:58.630Z,99482.95
2023-01-19T05:23:10.322Z,99488.02
2023-01-19T05:25:22.033Z,99487.50
2023-01-19T05:27:33.899Z,99489.27
2023-01-19T05:29:45.587Z,99489.60
2023-01-19T05:31:58.322Z,99492.77
2023-01-19T05:34:12.443Z,99498.88
2023-01-19T05:36:24.540Z,99496.34
2023-01-19T05:38:36.534Z,99500.24
2023-01-19T05:40:48.937Z,99497.69
2023-01-19T05:43:05.204Z,99497.95
2023-01-19T05:45:17.535Z,99498.33
2023-01-19T05:47:30.156Z,99501.02
2023-01-19T05:49:42.141Z,99504.89
2023-01-19T05:51:53.732Z,99504.55
2023-01-19T05:54:06.752Z,99511.16
2023-01-19T05:56:18.634Z,99514.98
2023-01-19T05:58:31.567Z,99517.21
2023-01-19T06:00:43.242Z,99525.03
2023-01-19T06:02:55.514Z,99528.55
2023-01-19T06:05:08.360Z,99530.09
2023-01-19T06:07:20.041Z,99533.12
2023-01-19T06:09:32.737Z,99537.73
2023-01-19T06:11:46.087Z,99542.20
2023-01-19T06:13:57.869Z,99547.78
2023-01-19T06:16:11.033Z,99548.35
2023-01-19T06:18:22.985Z,99556.59
2023-01-19T06:20:35.902Z,99562.78
2023-01-19T06:22:48.203Z,99567.39
2023-01-19T06:25:00.549Z,99576.64
2023-01-19T06:27:13.948Z,99583.70
2023-01-19T06:29:26.730Z,99592.94
2023-01-19T06:31:40.701Z,99600.52
2023-01-19T06:33:52.547Z,99602.39
2023-01-19T06:36:06.743Z,99610.17
2023-01-19T06:38:20.374Z,99616.32
2023-01-19T06:40:32.659Z,99617.33
2023-01-19T06:42:44.454Z,99624.38
2023-01-19T06:44:57.203Z,99620.95
2023-01-19T06:47:15.606Z,99620.85
2023-01-19T06:49:28.327Z,99621.38
2023-01-19T06:51:40.221Z,99622.23
2023-01-19T06:53:51.947Z,99619.73
2023-01-19T06:56:06.457Z,99624.37
2023-01-19T06:58:19.581Z,99624.85
2023-01-19T07:00:31.874Z,99630.79
2023-01-19T07:02:44.813Z,99631.16
2023-01-19T07:04:56.984Z,99635.17
2023-01-19T07:07:08.988Z,99630.88
2023-01-19T07:09:21.499Z,99630.38
2023-01-19T07:11:33.898Z,99638.14
2023-01-19T07:13:51.531Z,99645.11
2023-01-19T07:16:07.366Z,99650.78
2023-01-19T07:18:20.539Z,99657.35
2023-01-19T07:20:33.447Z,99655.16
2023-01-19T07:22:46.873Z,99656.33
2023-01-19T07:24:59.282Z,99659.29
2023-01-19T07:27:13.412Z,99654.77
2023-01-19T07:29:25.941Z,99655.88
2023-01-19T07:31:38.241Z,99654.23
2023-01-19T07:33:50.233Z,99656.86
2023-01-19T07:36:02.326Z,99654.85
2023-01-19T07:38:15.959Z,99656.10
2023-01-19T07:40:28.434Z,99654.06
2023-01-19T07:42:40.256Z,99657.14
2023-01-19T07:44:53.591Z,99659.69
2023-01-19T07:47:07.731Z,99666.38
2023-01-19T07:49:20.848Z,99671.10
2023-01-19T07:51:33.047Z,99676.48
2023-01-19T07:53:46.246Z,99675.74
2023-01-19T07:55:58.776Z,99677.97
2023-01-19T07:58:10.466Z,99681.72
2023-01-19T08:00:25.472Z,99681.94
2023-01-19T08:02:38.140Z,99688.83
2023-01-19T08:04:50.277Z,99690.90
2023-01-19T08:07:04.081Z,99690.98
2023-01-19T08:09:16.184Z,99689.73
2023-01-19T08:11:28.064Z,99692.90
2023-01-19T08:13:40.167Z,99696.09
2023-01-19T08:15:54.006Z,99691.60
2023-01-19T08:18:07.017Z,99688.70
2023-01-19T08:20:19.086Z,99689.54
2023-01-19T08:22:31.456Z,99687.73
2023-01-19T08:24:43.198Z,99687.64
2023-01-19T08:27:02.777Z,99686.52
2023-01-19T08:29:16.858Z,99686.33
2023-01-19T08:31:30.743Z,99686.73
2023-01-19T08:33:44.345Z,99684.02
2023-01-19T08:35:55.982Z,99688.52
2023-01-19T08:38:09.415Z,99686.39
2023-01-19T08:40:21.181Z,99683.30
2023-01-19T08:42:33.513Z,99685.88
2023-01-19T08:44:57.399Z,99686.91
2023-01-19T08:47:09.889Z,99686.91
2023-01-19T08:49:22.190Z,99688.00
2023-01-19T08:51:34.894Z,99687.98
2023-01-19T08:53:47.101Z,99686.74
2023-01-19T08:56:02.512Z,99681.63
2023-01-19T08:58:14.246Z,99689.93
2023-01-19T09:00:27.234Z,99693.14
2023-01-19T09:02:38.817Z,99690.59
2023-01-19T09:04:50.792Z,99691.19
2023-01-19T09:07:02.398Z,99697.14
2023-01-19T09:09:14.376Z,99699.69
2023-01-19T09:11:27.703Z,99701.98
2023-01-19T09:13:41.431Z,99700.20
2023-01-19T09:15:53.964Z,99703.00
2023-01-19T09:18:08.019Z,99710.42
2023-01-19T09:20:20.030Z,99713.94
2023-01-19T09:22:32.977Z,99712.45
2023-01-19T09:24:44.863Z,99717.99
2023-01-19T09:26:57.063Z,99723.61
2023-01-19T09:29:09.074Z,99726.77
2023-01-19T09:31:21.678Z,99728.59
2023-01-19T09:33:34.852Z,99728.14
2023-01-19T09:35:48.526Z,99728.09
2023-01-19T09:38:00.974Z,99726.61
2023-01-19T09:40:14.191Z,99728.86
2023-01-19T09:42:32.127Z,99725.06
2023-01-19T09:44:47.636Z,99731.23
2023-01-19T09:47:03.957Z,99729.91
2023-01-19T09:49:31.585Z,99735.23
2023-01-19T09:51:50.700Z,99739.27
2023-01-19T09:54:22.644Z,99734.48
2023-01-19T09:56:34.587Z,99724.55
2023-01-19T09:58:49.096Z,99726.44
2023-01-19T10:01:22.802Z,99720.67
2023-01-19T10:03:41.448Z,99722.02
2023-01-19T10:06:03.898Z,99719.93
2023-01-19T10:08:28.398Z,99722.96
2023-01-19T10:10:45.601Z,99721.35
2023-01-19T10:13:22.671Z,99726.42
2023-01-19T10:16:02.656Z,99731.95
2023-01-19T10:18:40.217Z,99740.12
2023-01-19T10:21:05.550Z,99746.66
2023-01-19T10:23:33.394Z,99743.41
2023-01-19T10:25:46.261Z,99743.25
2023-01-19T10:28:00.352Z,99746.55
2023-01-19T10:30:22.916Z,99747.26
2023-01-19T10:32:37.207Z,99745.88
2023-01-19T10:34:50.871Z,99752.74
2023-01-19T10:37:30.522Z,99756.04
2023-01-19T10:39:43.029Z,99758.22
2023-01-19T10:41:54.710Z,99757.61
2023-01-19T10:44:09.998Z,99754.33
2023-01-19T10:46:24.739Z,99749.52
2023-01-19T10:48:42.272Z,99748.31
2023-01-19T10:51:05.523Z,99749.04
2023-01-19T10:53:22.644Z,99748.20
2023-01-19T10:55:39.902Z,99742.83
2023-01-19T10:57:53.661Z,99740.36
2023-01-19T11:00:27.328Z,99740.36
2023-01-19T11:02:50.615Z,99739.66
2023-01-19T11:05:23.839Z,99739.88
2023-01-19T11:07:35.850Z,99734.55
2023-01-19T11:09:48.712Z,99734.15
2023-01-19T11:12:00.557Z,99731.05
2023-01-19T11:14:15.311Z,99727.34
2023-01-19T11:16:34.853Z,99727.24
2023-01-19T11:18:52.584Z,99725.35
2023-01-19T11:21:07.333Z,99727.42
2023-01-19T11:23:26.116Z,99725.77
2023-01-19T11:25:39.323Z,99725.55
2023-01-19T11:28:00.908Z,99728.44
2023-01-19T11:30:25.759Z,99726.40
2023-01-19T11:32:38.136Z,99730.17
2023-01-19T11:34:50.610Z,99730.35
2023-01-19T11:37:14.485Z,99728.83
2023-01-19T11:39:29.648Z,99731.11
2023-01-19T11:41:41.862Z,99732.81
2023-01-19T11:44:00.457Z,99732.87
2023-01-19T11:46:13.875Z,99734.35
2023-01-19T11:48:45.219Z,99739.37
2023-01-19T11:50:59.873Z,99735.58
2023-01-19T11:53:25.658Z,99735.94
2023-01-19T11:55:46.865Z,99732.60
2023-01-19T11:57:59.650Z,99734.24
2023-01-19T12:00:25.446Z,99734.17
2023-01-19T12:02:47.016Z,99736.73
2023-01-19T12:05:05.113Z,99738.09
2023-01-19T12:07:25.638Z,99739.86
2023-01-19T12:09:48.348Z,99733.78
2023-01-19T12:12:06.593Z,99732.05
2023-01-19T12:14:27.344Z,99734.38
2023-01-19T12:16:41.518Z,99738.12
2023-01-19T12:19:00.156Z,99734.08
2023-01-19T12:21:12.126Z,99734.67
2023-01-19T12:24:02.196Z,99727.62
2023-01-19T12:26:53.223Z,99727.84
2023-01-19T12:29:12.793Z,99731.83
2023-01-19T12:31:25.191Z,99740.75
2023-01-19T12:33:40.484Z,99748.67
2023-01-19T12:36:03.961Z,99749.30
2023-01-19T12:38:42.350Z,99747.97
2023-01-19T12:41:14.081Z,99749.38
2023-01-19T12:43:26.545Z,99754.39
2023-01-19T12:45:40.037Z,99760.38
2023-01-19T12:47:53.688Z,99760.61
2023-01-19T12:50:14.091Z,99756.41
2023-01-19T12:52:36.095Z,99754.44
2023-01-19T12:55:02.129Z,99746.64
2023-01-19T12:57:25.223Z,99741.05
2023-01-19T12:59:39.043Z,99736.73
2023-01-19T13:02:44.574Z,99737.11
2023-01-19T13:05:16.890Z,99731.41
2023-01-19T13:07:28.929Z,99729.70
2023-01-19T13:09:42.778Z,99730.05
2023-01-19T13:12:13.895Z,99730.98
2023-01-19T13:14:37.551Z,99729.09
2023-01-19T13:16:59.810Z,99728.48
2023-01-19T13:19:12.984Z,99729.21
2023-01-19T13:21:45.252Z,99726.27
2023-01-19T13:24:00.067Z,99723.66
2023-01-19T13:26:15.668Z,99715.13
2023-01-19T13:28:40.951Z,99706.61
2023-01-19T13:31:00.142Z,99705.91
2023-01-19T13:33:21.441Z,99703.40
2023-01-19T13:35:34.138Z,99704.02
2023-01-19T13:37:46.647Z,99709.45
2023-01-19T13:39:59.028Z,99713.89
2023-01-19T13:42:30.842Z,99713.41
2023-01-19T13:44:51.609Z,99711.16
2023-01-19T13:47:04.764Z,99717.61
2023-01-19T13:49:39.330Z,99712.44
2023-01-19T13:52:20.155Z,99718.43
2023-01-19T13:54:32.544Z,99725.07
2023-01-19T13:56:50.594Z,99726.10
2023-01-19T13:59:11.942Z,99728.98
2023-01-19T14:01:24.003Z,99729.95
2023-01-19T14:03:36.670Z,99734.34
2023-01-19T14:05:52.153Z,99734.20
2023-01-19T14:08:13.766Z,99734.67
2023-01-19T14:10:26.005Z,99738.41
2023-01-19T14:12:48.161Z,99738.10
2023-01-19T14:15:15.487Z,99735.55
2023-01-19T14:17:28.488Z,99731.79
2023-01-19T14:19:58.657Z,99727.31
2023-01-19T14:22:11.884Z,99726.02
2023-01-19T14:24:25.532Z,99726.21
2023-01-19T14:26:42.714Z,99727.66
2023-01-19T14:28:56.579Z,99731.98
2023-01-19T14:31:28.750Z,99728.27
2023-01-19T14:33:45.596Z,99728.36
2023-01-19T14:36:38.681Z,99732.24
2023-01-19T14:38:52.293Z,99734.27
2023-01-19T14:41:04.090Z,99738.40
2023-01-19T14:43:16.073Z,99736.06
2023-01-19T14:45:36.754Z,99737.33
2023-01-19T14:48:01.580Z,99736.17
2023-01-19T14:50:18.137Z,99738.27
2023-01-19T14:52:40.947Z,99738.27
2023-01-19T14:54:57.970Z,99739.58
2023-01-19T14:57:15.086Z,99744.81
2023-01-19T14:59:28.544Z,99744.29
2023-01-19T15:01:44.898Z,99746.68
2023-01-19T15:03:59.603Z,99750.78
2023-01-19T15:06:22.188Z,99754.63
2023-01-19T15:08:50.486Z,99756.52
2023-01-19T15:11:13.007Z,99757.23
2023-01-19T15:13:27.663Z,99763.81
2023-01-19T15:15:45.372Z,99765.27
2023-01-19T15:18:13.166Z,99766.13
2023-01-19T15:20:25.443Z,99765.63
2023-01-19T15:22:37.335Z,99764.52
2023-01-19T15:24:50.149Z,99762.48
2023-01-19T15:27:02.858Z,99759.55
2023-01-19T15:29:22.119Z,99760.13
2023-01-19T15:31:33.843Z,99764.60
2023-01-19T15:33:46.425Z,99766.14
2023-01-19T15:35:58.314Z,99769.32
2023-01-19T15:38:10.468Z,99767.14
2023-01-19T15:40:23.516Z,99765.91
2023-01-19T15:42:35.939Z,99769.91
2023-01-19T15:44:48.040Z,99769.98
2023-01-19T15:46:59.975Z,99773.38
2023-01-19T15:49:15.363Z,99774.86
2023-01-19T15:51:28.282Z,99782.04
2023-01-19T15:53:41.500Z,99785.30
2023-01-19T15:55:56.942Z,99789.56
2023-01-19T15:58:08.956Z,99786.45
2023-01-19T16:00:21.277Z,99783.92
2023-01-19T16:02:36.177Z,99784.23
2023-01-19T16:04:49.610Z,99782.35
2023-01-19T16:07:01.155Z,99786.72
2023-01-19T16:09:20.319Z,99788.80
2023-01-19T16:11:35.107Z,99793.64
2023-01-19T16:13:47.686Z,99793.77
2023-01-19T16:16:14.074Z,99804.73
2023-01-19T16:18:27.071Z,99807.60
2023-01-19T16:20:39.270Z,99812.91
2023-01-19T16:22:52.874Z,99813.90
2023-01-19T16:25:10.665Z,99816.27
2023-01-19T16:27:24.171Z,99822.30
2023-01-19T16:29:36.057Z,99825.80
2023-01-19T16:31:47.893Z,99828.14
2023-01-19T16:34:02.196Z,99833.52
2023-01-19T16:36:23.325Z,99833.82
2023-01-19T16:38:35.095Z,99842.58
2023-01-19T16:40:48.628Z,99843.10
2023-01-19T16:43:00.724Z,99845.86
2023-01-19T16:45:16.203Z,99846.35
2023-01-19T16:47:28.512Z,99847.15
2023-01-19T16:49:40.905Z,99849.17
2023-01-19T16:51:54.897Z,99855.80
2023-01-19T16:54:07.261Z,99860.66
2023-01-19T16:56:19.652Z,99866.70
2023-01-19T16:58:31.758Z,99869.84
2023-01-19T17:00:43.853Z,99871.73
2023-01-19T17:02:56.189Z,99873.83
2023-01-19T17:05:08.962Z,99880.52
2023-01-19T17:07:21.046Z,99884.27
2023-01-19T17:09:32.957Z,99895.53
2023-01-19T17:11:47.929Z,99891.80
2023-01-19T17:14:03.498Z,99892.67
2023-01-19T17:16:15.953Z,99891.83
2023-01-19T17:18:31.937Z,99888.02
2023-01-19T17:20:43.986Z,99889.30
2023-01-19T17:22:56.492Z,99889.79
2023-01-19T17:25:08.905Z,99885.98
2023-01-19T17:27:20.456Z,99888.11
2023-01-19T17:29:32.167Z,99891.13
2023-01-19T17:31:44.807Z,99893.85
2023-01-19T17:33:57.620Z,99897.67
2023-01-19T17:36:13.102Z,99895.04
2023-01-19T17:38:24.960Z,99896.58
2023-01-19T17:40:37.671Z,99894.13
2023-01-19T17:42:49.563Z,99896.61
2023-01-19T17:45:01.456Z,99902.35
2023-01-19T17:47:13.460Z,99904.87
2023-01-19T17:49:25.352Z,99906.48
2023-01-19T17:51:37.542Z,99910.01
2023-01-19T17:53:51.592Z,99909.12
2023-01-19T17:56:05.431Z,99907.23
2023-01-19T17:58:17.520Z,99903.51
2023-01-19T18:00:30.129Z,99903.48
2023-01-19T18:02:45.087Z,99901.68
2023-01-19T18:05:00.878Z,99900.05
2023-01-19T18:07:12.976Z,99903.95
2023-01-19T18:09:24.872Z,99904.45
2023-01-19T18:11:36.556Z,99901.95
2023-01-19T18:13:50.744Z,99896.67
2023-01-19T18:16:08.791Z,99894.73
2023-01-19T18:18:20.525Z,99888.40
2023-01-19T18:20:32.522Z,99890.67
2023-01-19T18:22:44.627Z,99886.28
2023-01-19T18:24:57.330Z,99885.73
2023-01-19T18:27:09.433Z,99883.09
2023-01-19T18:29:21.624Z,99879.27
2023-01-19T18:31:33.900Z,99878.69
2023-01-19T18:33:47.086Z,99876.41
2023-01-19T18:36:00.272Z,99873.96
2023-01-19T18:38:14.891Z,99872.21
2023-01-19T18:40:29.381Z,99874.84
2023-01-19T18:42:44.059Z,99872.36
2023-01-19T18:44:57.983Z,99874.45
2023-01-19T18:47:09.971Z,99875.69
2023-01-19T18:49:21.572Z,99884.25
2023-01-19T18:51:33.860Z,99884.85
2023-01-19T18:53:45.817Z,99881.27
2023-01-19T18:55:59.484Z,99885.95
2023-01-19T18:58:11.446Z,99884.02
2023-01-19T19:00:24.100Z,99886.40
2023-01-19T19:02:37.417Z,99894.98
2023-01-19T19:04:50.127Z,99901.52
2023-01-19T19:07:02.447Z,99902.48
2023-01-19T19:09:14.116Z,99910.67
2023-01-19T19:11:27.091Z,99916.54
2023-01-19T19:13:39.342Z,99918.03
2023-01-19T19:15:52.740Z,99914.21
2023-01-19T19:18:05.783Z,99911.31
2023-01-19T19:20:18.002Z,99908.10
2023-01-19T19:22:30.182Z,99911.49
2023-01-19T19:24:41.571Z,99910.58
2023-01-19T19:26:54.478Z,99914.25
2023-01-19T19:29:06.370Z,99916.29
2023-01-19T19:31:21.144Z,99907.80
2023-01-19T19:33:33.842Z,99907.80
2023-01-19T19:35:45.939Z,99907.12
2023-01-19T19:37:58.031Z,99914.17
2023-01-19T19:40:13.640Z,99915.45
2023-01-19T19:42:29.090Z,99920.71
2023-01-19T19:44:40.679Z,99926.40
2023-01-19T19:46:53.728Z,99929.00
2023-01-19T19:49:05.998Z,99935.49
2023-01-19T19:51:25.553Z,99933.08
2023-01-19T19:53:40.327Z,99933.70
2023-01-19T19:56:01.022Z,99929.95
2023-01-19T19:58:13.231Z,99935.16
2023-01-19T20:00:27.927Z,99939.73
2023-01-19T20:02:40.526Z,99948.29
2023-01-19T20:04:53.117Z,99950.94
2023-01-19T20:07:05.458Z,99948.33
2023-01-19T20:09:18.114Z,99949.92
2023-01-19T20:11:31.339Z,99947.14
2023-01-19T20:13:44.424Z,99948.15
2023-01-19T20:15:56.363Z,99947.07
2023-01-19T20:18:08.551Z,99943.95
2023-01-19T20:20:25.365Z,99944.39
2023-01-19T20:22:41.980Z,99941.34
2023-01-19T20:24:58.965Z,99941.71
2023-01-19T20:27:15.219Z,99939.70
2023-01-19T20:29:32.365Z,99937.91
2023-01-19T20:31:52.112Z,99939.07
2023-01-19T20:34:33.044Z,99945.73
2023-01-19T20:36:49.908Z,99942.75
2023-01-19T20:39:12.224Z,99942.23
2023-01-19T20:41:29.584Z,99941.95
2023-01-19T20:43:45.958Z,99942.48
2023-01-19T20:46:00.689Z,99941.05
2023-01-19T20:48:14.905Z,99944.48
2023-01-19T20:50:31.956Z,99945.76
2023-01-19T20:52:45.957Z,99943.00
2023-01-19T20:55:00.178Z,99948.23
2023-01-19T20:57:16.139Z,99948.06
2023-01-19T20:59:32.871Z,99948.15
2023-01-19T21:01:47.966Z,99947.77
2023-01-19T21:04:04.128Z,99949.02
2023-01-19T21:06:23.976Z,99948.80
2023-01-19T21:08:41.059Z,99950.10
2023-01-19T21:10:58.260Z,99950.48
2023-01-19T21:13:15.400Z,99952.52
2023-01-19T21:15:30.479Z,99959.43
2023-01-19T21:17:47.329Z,99962.77
2023-01-19T21:20:19.742Z,99971.21
2023-01-19T21:23:11.496Z,99972.88
2023-01-19T21:25:28.038Z,99973.81
2023-01-19T21:27:45.182Z,99978.36
2023-01-19T21:30:03.520Z,99983.37
2023-01-19T21:32:18.033Z,99986.88
2023-01-19T21:34:35.268Z,99994.60
2023-01-19T21:36:50.226Z,99998.19
2023-01-19T21:39:07.315Z,100007.02
2023-01-19T21:41:24.691Z,100010.63
2023-01-19T21:43:42.960Z,100016.24
2023-01-19T21:46:11.211Z,100013.61
2023-01-19T21:48:26.265Z,100017.83
2023-01-19T21:50:43.516Z,100021.14
2023-01-19T21:53:00.547Z,100024.09
2023-01-19T21:55:14.647Z,100028.48
2023-01-19T21:57:26.848Z,100025.90
2023-01-19T21:59:41.023Z,100027.90
2023-01-19T22:01:52.908Z,100030.64
2023-01-19T22:04:06.416Z,100032.14
2023-01-19T22:06:18.410Z,100035.88
2023-01-19T22:08:30.416Z,100032.08
2023-01-19T22:10:42.092Z,100031.37
2023-01-19T22:12:53.742Z,100035.61
2023-01-19T22:15:06.800Z,100038.02
2023-01-19T22:17:18.694Z,100041.07
2023-01-19T22:19:30.791Z,100046.08
2023-01-19T22:21:42.580Z,100049.08
2023-01-19T22:23:56.697Z,100048.71
2023-01-19T22:26:10.747Z,100049.27
2023-01-19T22:28:22.791Z,100049.80
2023-01-19T22:30:35.101Z,100049.23
2023-01-19T22:32:47.749Z,100052.86
2023-01-19T22:35:00.089Z,100053.89
2023-01-19T22:37:13.924Z,100049.50
2023-01-19T22:39:26.113Z,100044.36
2023-01-19T22:41:45.316Z,100044.17
2023-01-19T22:44:05.462Z,100036.11
2023-01-19T22:46:20.669Z,100039.52
2023-01-19T22:48:32.625Z,100040.08
2023-01-19T22:50:46.415Z,100037.02
2023-01-19T22:52:59.181Z,100040.37
2023-01-19T22:55:11.731Z,100041.48
2023-01-19T22:57:25.008Z,100046.44
2023-01-19T22:59:36.900Z,100050.52
2023-01-19T23:01:49.687Z,100054.55
2023-01-19T23:04:04.312Z,100055.48
2023-01-19T23:06:22.005Z,100052.66
2023-01-19T23:08:34.571Z,100048.77
2023-01-19T23:10:46.805Z,100041.34
2023-01-19T23:12:58.323Z,100043.19
2023-01-19T23:15:10.736Z,100039.58
2023-01-19T23:17:22.516Z,100040.88
2023-01-19T23:19:34.477Z,100039.91
2023-01-19T23:21:46.587Z,100046.50
2023-01-19T23:24:01.363Z,100047.48
2023-01-19T23:26:16.400Z,100048.39
2023-01-19T23:28:28.293Z,100046.66
2023-01-19T23:30:40.469Z,100051.95
2023-01-19T23:32:52.487Z,100052.52
2023-01-19T23:35:04.490Z,100049.29
2023-01-19T23:37:16.583Z,100050.34
2023-01-19T23:39:28.574Z,100049.50
2023-01-19T23:41:40.263Z,100049.36
2023-01-19T23:43:52.769Z,100059.04
2023-01-19T23:46:05.964Z,100061.75
2023-01-19T23:48:17.986Z,100065.69
2023-01-19T23:50:30.195Z,100071.81
2023-01-19T23:52:42.490Z,100075.69
2023-01-19T23:54:54.075Z,100074.20
2023-01-19T23:57:06.479Z,100062.29
2023-01-19T23:59:18.267Z,100058.05
